sensor_id;sensor_type;location;lat;lon;timestamp;P1;durP1;ratioP1;P2;durP2;ratioP2
23310;SDS011;11828;51.508;18.118;2022-11-15T00:00:40;84.28;;;37.00;;
23310;SDS011;11828;51.508;18.118;2022-11-15T00:03:06;90.53;;;36.85;;
23310;SDS011;11828;51.508;18.118;2022-11-15T00:05:35;83.57;;;33.92;;
23310;SDS011;11828;51.508;18.118;2022-11-15T00:08:01;82.05;;;35.35;;
23310;SDS011;11828;51.508;18.118;2022-11-15T00:10:27;78.35;;;31.88;;
23310;SDS011;11828;51.508;18.118;2022-11-15T00:12:53;78.07;;;34.10;;
23310;SDS011;11828;51.508;18.118;2022-11-15T00:15:20;69.03;;;31.65;;
23310;SDS011;11828;51.508;18.118;2022-11-15T00:17:48;70.85;;;31.13;;
23310;SDS011;11828;51.508;18.118;2022-11-15T00:20:16;63.63;;;28.65;;
23310;SDS011;11828;51.508;18.118;2022-11-15T00:22:42;61.17;;;27.65;;
23310;SDS011;11828;51.508;18.118;2022-11-15T00:25:09;57.97;;;26.15;;
23310;SDS011;11828;51.508;18.118;2022-11-15T00:27:34;63.40;;;27.70;;
23310;SDS011;11828;51.508;18.118;2022-11-15T00:30:01;69.97;;;29.02;;
23310;SDS011;11828;51.508;18.118;2022-11-15T00:32:30;62.13;;;28.88;;
23310;SDS011;11828;51.508;18.118;2022-11-15T00:34:57;60.58;;;27.00;;
23310;SDS011;11828;51.508;18.118;2022-11-15T00:37:23;64.75;;;27.33;;
23310;SDS011;11828;51.508;18.118;2022-11-15T00:39:49;71.85;;;32.00;;
23310;SDS011;11828;51.508;18.118;2022-11-15T00:42:15;65.03;;;29.40;;
23310;SDS011;11828;51.508;18.118;2022-11-15T00:44:41;64.88;;;28.83;;
23310;SDS011;11828;51.508;18.118;2022-11-15T00:47:07;65.18;;;27.52;;
23310;SDS011;11828;51.508;18.118;2022-11-15T00:49:34;61.50;;;27.38;;
23310;SDS011;11828;51.508;18.118;2022-11-15T00:51:59;57.60;;;26.98;;
23310;SDS011;11828;51.508;18.118;2022-11-15T00:54:26;62.95;;;27.25;;
23310;SDS011;11828;51.508;18.118;2022-11-15T00:56:52;60.75;;;27.35;;
23310;SDS011;11828;51.508;18.118;2022-11-15T00:59:18;58.17;;;27.10;;
23310;SDS011;11828;51.508;18.118;2022-11-15T01:01:44;61.97;;;26.60;;
23310;SDS011;11828;51.508;18.118;2022-11-15T01:04:10;58.10;;;26.45;;
23310;SDS011;11828;51.508;18.118;2022-11-15T01:06:36;51.97;;;24.73;;
23310;SDS011;11828;51.508;18.118;2022-11-15T01:09:02;53.42;;;25.40;;
23310;SDS011;11828;51.508;18.118;2022-11-15T01:11:28;59.65;;;27.23;;
23310;SDS011;11828;51.508;18.118;2022-11-15T01:13:54;67.82;;;28.63;;
23310;SDS011;11828;51.508;18.118;2022-11-15T01:16:20;64.15;;;28.30;;
23310;SDS011;11828;51.508;18.118;2022-11-15T01:18:47;58.83;;;26.65;;
23310;SDS011;11828;51.508;18.118;2022-11-15T01:21:14;60.42;;;25.77;;
23310;SDS011;11828;51.508;18.118;2022-11-15T01:23:43;58.95;;;26.77;;
23310;SDS011;11828;51.508;18.118;2022-11-15T01:26:11;56.80;;;26.80;;
23310;SDS011;11828;51.508;18.118;2022-11-15T01:28:40;57.78;;;26.38;;
23310;SDS011;11828;51.508;18.118;2022-11-15T01:31:14;54.75;;;25.13;;
23310;SDS011;11828;51.508;18.118;2022-11-15T01:33:43;56.88;;;26.75;;
23310;SDS011;11828;51.508;18.118;2022-11-15T01:36:18;59.95;;;27.55;;
23310;SDS011;11828;51.508;18.118;2022-11-15T01:38:52;56.40;;;25.63;;
23310;SDS011;11828;51.508;18.118;2022-11-15T01:41:28;55.97;;;24.52;;
23310;SDS011;11828;51.508;18.118;2022-11-15T01:43:58;55.78;;;25.77;;
23310;SDS011;11828;51.508;18.118;2022-11-15T01:47:07;51.97;;;24.73;;
23310;SDS011;11828;51.508;18.118;2022-11-15T01:49:48;54.58;;;25.77;;
23310;SDS011;11828;51.508;18.118;2022-11-15T01:52:37;50.38;;;24.55;;
23310;SDS011;11828;51.508;18.118;2022-11-15T01:57:38;56.65;;;27.05;;
23310;SDS011;11828;51.508;18.118;2022-11-15T02:00:08;58.95;;;25.63;;
23310;SDS011;11828;51.508;18.118;2022-11-15T02:02:35;54.95;;;26.05;;
23310;SDS011;11828;51.508;18.118;2022-11-15T02:05:03;61.92;;;26.75;;
23310;SDS011;11828;51.508;18.118;2022-11-15T02:07:29;52.40;;;25.02;;
23310;SDS011;11828;51.508;18.118;2022-11-15T02:10:14;56.60;;;25.90;;
23310;SDS011;11828;51.508;18.118;2022-11-15T02:12:45;61.45;;;27.20;;
23310;SDS011;11828;51.508;18.118;2022-11-15T02:15:13;61.50;;;25.95;;
23310;SDS011;11828;51.508;18.118;2022-11-15T02:17:51;50.03;;;24.20;;
23310;SDS011;11828;51.508;18.118;2022-11-15T02:27:00;52.30;;;24.42;;
23310;SDS011;11828;51.508;18.118;2022-11-15T02:32:51;53.22;;;24.38;;
23310;SDS011;11828;51.508;18.118;2022-11-15T02:38:22;52.95;;;23.73;;
23310;SDS011;11828;51.508;18.118;2022-11-15T02:41:46;57.10;;;25.60;;
23310;SDS011;11828;51.508;18.118;2022-11-15T02:44:50;51.28;;;24.25;;
23310;SDS011;11828;51.508;18.118;2022-11-15T02:47:18;51.72;;;24.20;;
23310;SDS011;11828;51.508;18.118;2022-11-15T02:49:47;53.15;;;24.27;;
23310;SDS011;11828;51.508;18.118;2022-11-15T02:52:20;49.88;;;23.70;;
23310;SDS011;11828;51.508;18.118;2022-11-15T02:54:54;56.28;;;24.08;;
23310;SDS011;11828;51.508;18.118;2022-11-15T02:57:36;60.72;;;26.40;;
23310;SDS011;11828;51.508;18.118;2022-11-15T03:00:47;56.50;;;25.08;;
23310;SDS011;11828;51.508;18.118;2022-11-15T03:03:41;57.72;;;26.05;;
23310;SDS011;11828;51.508;18.118;2022-11-15T03:06:50;54.13;;;24.25;;
23310;SDS011;11828;51.508;18.118;2022-11-15T03:12:24;57.00;;;24.50;;
23310;SDS011;11828;51.508;18.118;2022-11-15T03:15:07;58.63;;;25.83;;
23310;SDS011;11828;51.508;18.118;2022-11-15T03:17:53;47.58;;;23.23;;
23310;SDS011;11828;51.508;18.118;2022-11-15T03:20:26;52.85;;;22.42;;
23310;SDS011;11828;51.508;18.118;2022-11-15T03:22:55;49.20;;;21.33;;
23310;SDS011;11828;51.508;18.118;2022-11-15T03:25:26;43.65;;;21.42;;
23310;SDS011;11828;51.508;18.118;2022-11-15T03:27:55;43.25;;;19.35;;
23310;SDS011;11828;51.508;18.118;2022-11-15T03:30:24;49.22;;;21.65;;
23310;SDS011;11828;51.508;18.118;2022-11-15T03:32:51;49.25;;;23.08;;
23310;SDS011;11828;51.508;18.118;2022-11-15T03:35:25;50.08;;;22.95;;
23310;SDS011;11828;51.508;18.118;2022-11-15T03:40:55;50.97;;;22.83;;
23310;SDS011;11828;51.508;18.118;2022-11-15T03:46:21;47.38;;;22.75;;
23310;SDS011;11828;51.508;18.118;2022-11-15T03:48:54;48.92;;;22.25;;
23310;SDS011;11828;51.508;18.118;2022-11-15T03:51:49;48.22;;;22.13;;
23310;SDS011;11828;51.508;18.118;2022-11-15T03:54:16;48.20;;;22.10;;
23310;SDS011;11828;51.508;18.118;2022-11-15T03:56:42;50.90;;;21.33;;
23310;SDS011;11828;51.508;18.118;2022-11-15T03:59:08;40.22;;;19.58;;
23310;SDS011;11828;51.508;18.118;2022-11-15T04:01:34;47.35;;;22.05;;
23310;SDS011;11828;51.508;18.118;2022-11-15T04:04:00;52.38;;;22.45;;
23310;SDS011;11828;51.508;18.118;2022-11-15T04:06:26;51.53;;;23.13;;
23310;SDS011;11828;51.508;18.118;2022-11-15T04:08:53;46.88;;;22.15;;
23310;SDS011;11828;51.508;18.118;2022-11-15T04:11:19;52.50;;;24.40;;
23310;SDS011;11828;51.508;18.118;2022-11-15T04:13:45;55.38;;;23.77;;
23310;SDS011;11828;51.508;18.118;2022-11-15T04:16:11;51.97;;;24.10;;
23310;SDS011;11828;51.508;18.118;2022-11-15T04:18:37;55.22;;;24.77;;
23310;SDS011;11828;51.508;18.118;2022-11-15T04:21:03;55.20;;;23.48;;
23310;SDS011;11828;51.508;18.118;2022-11-15T04:23:49;45.72;;;21.88;;
23310;SDS011;11828;51.508;18.118;2022-11-15T04:26:30;43.15;;;19.27;;
23310;SDS011;11828;51.508;18.118;2022-11-15T04:28:56;51.35;;;22.17;;
23310;SDS011;11828;51.508;18.118;2022-11-15T04:31:41;53.05;;;23.33;;
23310;SDS011;11828;51.508;18.118;2022-11-15T04:34:07;52.45;;;24.40;;
23310;SDS011;11828;51.508;18.118;2022-11-15T04:36:33;60.95;;;25.45;;
23310;SDS011;11828;51.508;18.118;2022-11-15T04:39:18;52.20;;;22.50;;
23310;SDS011;11828;51.508;18.118;2022-11-15T04:41:44;48.25;;;21.23;;
23310;SDS011;11828;51.508;18.118;2022-11-15T04:44:10;39.95;;;19.75;;
23310;SDS011;11828;51.508;18.118;2022-11-15T04:46:36;45.25;;;21.27;;
23310;SDS011;11828;51.508;18.118;2022-11-15T04:49:02;44.25;;;20.25;;
23310;SDS011;11828;51.508;18.118;2022-11-15T04:51:28;45.17;;;21.38;;
23310;SDS011;11828;51.508;18.118;2022-11-15T04:53:54;45.72;;;21.70;;
23310;SDS011;11828;51.508;18.118;2022-11-15T04:56:20;47.47;;;23.15;;
23310;SDS011;11828;51.508;18.118;2022-11-15T04:58:48;47.03;;;22.65;;
23310;SDS011;11828;51.508;18.118;2022-11-15T05:01:15;56.38;;;25.83;;
23310;SDS011;11828;51.508;18.118;2022-11-15T05:03:41;64.55;;;32.92;;
23310;SDS011;11828;51.508;18.118;2022-11-15T05:06:27;58.30;;;29.38;;
23310;SDS011;11828;51.508;18.118;2022-11-15T05:08:53;56.45;;;26.73;;
23310;SDS011;11828;51.508;18.118;2022-11-15T05:11:20;46.13;;;23.00;;
23310;SDS011;11828;51.508;18.118;2022-11-15T05:13:46;50.78;;;22.65;;
23310;SDS011;11828;51.508;18.118;2022-11-15T05:16:12;43.85;;;21.05;;
23310;SDS011;11828;51.508;18.118;2022-11-15T05:18:38;37.53;;;20.25;;
23310;SDS011;11828;51.508;18.118;2022-11-15T05:21:10;41.10;;;20.42;;
23310;SDS011;11828;51.508;18.118;2022-11-15T05:23:39;37.85;;;19.77;;
23310;SDS011;11828;51.508;18.118;2022-11-15T05:26:06;40.22;;;19.20;;
23310;SDS011;11828;51.508;18.118;2022-11-15T05:28:34;39.25;;;19.05;;
23310;SDS011;11828;51.508;18.118;2022-11-15T05:31:05;40.38;;;20.05;;
23310;SDS011;11828;51.508;18.118;2022-11-15T05:33:35;39.28;;;18.70;;
23310;SDS011;11828;51.508;18.118;2022-11-15T05:36:11;40.05;;;19.98;;
23310;SDS011;11828;51.508;18.118;2022-11-15T05:38:59;45.55;;;21.42;;
23310;SDS011;11828;51.508;18.118;2022-11-15T05:41:30;49.42;;;22.45;;
23310;SDS011;11828;51.508;18.118;2022-11-15T05:44:10;60.28;;;24.95;;
23310;SDS011;11828;51.508;18.118;2022-11-15T05:46:39;120.72;;;41.05;;
23310;SDS011;11828;51.508;18.118;2022-11-15T05:49:07;112.28;;;40.30;;
23310;SDS011;11828;51.508;18.118;2022-11-15T05:51:39;97.07;;;38.00;;
23310;SDS011;11828;51.508;18.118;2022-11-15T05:54:06;94.03;;;35.55;;
23310;SDS011;11828;51.508;18.118;2022-11-15T05:56:33;64.78;;;29.30;;
23310;SDS011;11828;51.508;18.118;2022-11-15T05:58:59;64.95;;;28.50;;
23310;SDS011;11828;51.508;18.118;2022-11-15T06:01:25;64.43;;;29.33;;
23310;SDS011;11828;51.508;18.118;2022-11-15T06:03:53;62.25;;;32.67;;
23310;SDS011;11828;51.508;18.118;2022-11-15T06:06:19;58.30;;;31.33;;
23310;SDS011;11828;51.508;18.118;2022-11-15T06:08:45;54.20;;;28.42;;
23310;SDS011;11828;51.508;18.118;2022-11-15T06:11:12;55.65;;;27.92;;
23310;SDS011;11828;51.508;18.118;2022-11-15T06:13:39;54.83;;;26.63;;
23310;SDS011;11828;51.508;18.118;2022-11-15T06:16:05;54.25;;;27.52;;
23310;SDS011;11828;51.508;18.118;2022-11-15T06:18:32;59.90;;;27.10;;
23310;SDS011;11828;51.508;18.118;2022-11-15T06:20:59;66.63;;;32.25;;
23310;SDS011;11828;51.508;18.118;2022-11-15T06:23:26;69.57;;;32.25;;
23310;SDS011;11828;51.508;18.118;2022-11-15T06:25:52;75.32;;;33.75;;
23310;SDS011;11828;51.508;18.118;2022-11-15T06:28:19;72.55;;;33.08;;
23310;SDS011;11828;51.508;18.118;2022-11-15T06:30:45;62.83;;;29.60;;
23310;SDS011;11828;51.508;18.118;2022-11-15T06:33:11;71.40;;;33.17;;
23310;SDS011;11828;51.508;18.118;2022-11-15T06:35:37;67.82;;;34.20;;
23310;SDS011;11828;51.508;18.118;2022-11-15T06:38:05;71.55;;;32.20;;
23310;SDS011;11828;51.508;18.118;2022-11-15T06:40:34;57.05;;;27.85;;
23310;SDS011;11828;51.508;18.118;2022-11-15T06:43:02;54.47;;;26.63;;
23310;SDS011;11828;51.508;18.118;2022-11-15T06:45:29;56.95;;;25.80;;
23310;SDS011;11828;51.508;18.118;2022-11-15T06:47:56;60.97;;;27.85;;
23310;SDS011;11828;51.508;18.118;2022-11-15T06:50:23;55.13;;;26.67;;
23310;SDS011;11828;51.508;18.118;2022-11-15T06:52:49;53.13;;;24.35;;
23310;SDS011;11828;51.508;18.118;2022-11-15T06:55:15;57.08;;;27.13;;
23310;SDS011;11828;51.508;18.118;2022-11-15T06:57:49;62.40;;;30.05;;
23310;SDS011;11828;51.508;18.118;2022-11-15T07:00:17;67.97;;;30.70;;
23310;SDS011;11828;51.508;18.118;2022-11-15T07:02:46;53.55;;;26.02;;
23310;SDS011;11828;51.508;18.118;2022-11-15T07:05:12;47.30;;;22.13;;
23310;SDS011;11828;51.508;18.118;2022-11-15T07:07:40;52.17;;;25.63;;
23310;SDS011;11828;51.508;18.118;2022-11-15T07:10:06;54.25;;;26.42;;
23310;SDS011;11828;51.508;18.118;2022-11-15T07:12:33;62.03;;;30.15;;
23310;SDS011;11828;51.508;18.118;2022-11-15T07:15:00;79.38;;;38.78;;
23310;SDS011;11828;51.508;18.118;2022-11-15T07:17:26;79.72;;;37.55;;
23310;SDS011;11828;51.508;18.118;2022-11-15T07:19:52;56.00;;;27.85;;
23310;SDS011;11828;51.508;18.118;2022-11-15T07:22:18;48.17;;;23.92;;
23310;SDS011;11828;51.508;18.118;2022-11-15T07:24:44;46.95;;;22.42;;
23310;SDS011;11828;51.508;18.118;2022-11-15T07:27:10;42.20;;;21.13;;
23310;SDS011;11828;51.508;18.118;2022-11-15T07:29:36;46.55;;;21.10;;
23310;SDS011;11828;51.508;18.118;2022-11-15T07:32:02;40.17;;;20.48;;
23310;SDS011;11828;51.508;18.118;2022-11-15T07:34:28;48.50;;;24.45;;
23310;SDS011;11828;51.508;18.118;2022-11-15T07:36:55;87.22;;;37.08;;
23310;SDS011;11828;51.508;18.118;2022-11-15T07:39:21;87.13;;;39.35;;
23310;SDS011;11828;51.508;18.118;2022-11-15T07:41:47;86.50;;;40.92;;
23310;SDS011;11828;51.508;18.118;2022-11-15T07:44:14;98.75;;;44.63;;
23310;SDS011;11828;51.508;18.118;2022-11-15T07:46:41;104.97;;;45.47;;
23310;SDS011;11828;51.508;18.118;2022-11-15T07:49:07;83.05;;;39.90;;
23310;SDS011;11828;51.508;18.118;2022-11-15T07:51:33;71.60;;;35.40;;
23310;SDS011;11828;51.508;18.118;2022-11-15T07:53:59;77.53;;;35.83;;
23310;SDS011;11828;51.508;18.118;2022-11-15T07:56:26;64.03;;;31.83;;
23310;SDS011;11828;51.508;18.118;2022-11-15T07:58:53;72.10;;;33.92;;
23310;SDS011;11828;51.508;18.118;2022-11-15T08:01:19;66.65;;;31.85;;
23310;SDS011;11828;51.508;18.118;2022-11-15T08:03:45;53.65;;;26.00;;
23310;SDS011;11828;51.508;18.118;2022-11-15T08:06:11;54.38;;;24.85;;
23310;SDS011;11828;51.508;18.118;2022-11-15T08:08:37;50.33;;;23.52;;
23310;SDS011;11828;51.508;18.118;2022-11-15T08:11:04;41.20;;;21.88;;
23310;SDS011;11828;51.508;18.118;2022-11-15T08:13:30;45.25;;;22.98;;
23310;SDS011;11828;51.508;18.118;2022-11-15T08:15:59;45.58;;;23.33;;
23310;SDS011;11828;51.508;18.118;2022-11-15T08:18:28;56.13;;;27.00;;
23310;SDS011;11828;51.508;18.118;2022-11-15T08:20:57;54.75;;;30.23;;
23310;SDS011;11828;51.508;18.118;2022-11-15T08:23:25;54.22;;;26.95;;
23310;SDS011;11828;51.508;18.118;2022-11-15T08:25:51;325.33;;;117.32;;
23310;SDS011;11828;51.508;18.118;2022-11-15T08:28:17;639.08;;;561.78;;
23310;SDS011;11828;51.508;18.118;2022-11-15T08:30:43;372.02;;;202.95;;
23310;SDS011;11828;51.508;18.118;2022-11-15T08:33:11;276.20;;;94.30;;
23310;SDS011;11828;51.508;18.118;2022-11-15T08:35:41;320.70;;;120.72;;
23310;SDS011;11828;51.508;18.118;2022-11-15T08:38:08;264.83;;;89.47;;
23310;SDS011;11828;51.508;18.118;2022-11-15T08:40:35;361.60;;;189.23;;
23310;SDS011;11828;51.508;18.118;2022-11-15T08:43:01;327.48;;;100.82;;
23310;SDS011;11828;51.508;18.118;2022-11-15T08:45:28;290.60;;;95.93;;
23310;SDS011;11828;51.508;18.118;2022-11-15T08:47:55;292.48;;;96.32;;
23310;SDS011;11828;51.508;18.118;2022-11-15T08:50:22;309.63;;;118.50;;
23310;SDS011;11828;51.508;18.118;2022-11-15T08:52:48;280.75;;;93.20;;
23310;SDS011;11828;51.508;18.118;2022-11-15T08:55:15;286.00;;;96.57;;
23310;SDS011;11828;51.508;18.118;2022-11-15T08:57:41;278.70;;;104.70;;
23310;SDS011;11828;51.508;18.118;2022-11-15T09:00:07;291.08;;;98.05;;
23310;SDS011;11828;51.508;18.118;2022-11-15T09:02:34;279.73;;;96.85;;
23310;SDS011;11828;51.508;18.118;2022-11-15T09:05:06;287.50;;;100.30;;
23310;SDS011;11828;51.508;18.118;2022-11-15T09:07:33;292.58;;;109.32;;
23310;SDS011;11828;51.508;18.118;2022-11-15T09:10:00;296.38;;;108.63;;
23310;SDS011;11828;51.508;18.118;2022-11-15T09:12:26;291.25;;;118.47;;
23310;SDS011;11828;51.508;18.118;2022-11-15T09:14:52;299.52;;;118.05;;
23310;SDS011;11828;51.508;18.118;2022-11-15T09:17:19;312.80;;;111.82;;
23310;SDS011;11828;51.508;18.118;2022-11-15T09:19:45;307.80;;;122.18;;
23310;SDS011;11828;51.508;18.118;2022-11-15T09:22:11;309.83;;;113.43;;
23310;SDS011;11828;51.508;18.118;2022-11-15T09:24:37;326.58;;;112.13;;
23310;SDS011;11828;51.508;18.118;2022-11-15T09:27:04;305.15;;;106.22;;
23310;SDS011;11828;51.508;18.118;2022-11-15T09:29:30;305.75;;;106.13;;
23310;SDS011;11828;51.508;18.118;2022-11-15T09:31:56;310.77;;;106.47;;
23310;SDS011;11828;51.508;18.118;2022-11-15T09:34:23;344.63;;;108.43;;
23310;SDS011;11828;51.508;18.118;2022-11-15T09:36:49;311.42;;;101.40;;
23310;SDS011;11828;51.508;18.118;2022-11-15T09:39:15;307.20;;;101.63;;
23310;SDS011;11828;51.508;18.118;2022-11-15T09:41:53;302.98;;;98.47;;
23310;SDS011;11828;51.508;18.118;2022-11-15T09:47:38;305.40;;;101.57;;
23310;SDS011;11828;51.508;18.118;2022-11-15T09:50:43;332.23;;;108.47;;
23310;SDS011;11828;51.508;18.118;2022-11-15T09:53:22;315.92;;;107.35;;
23310;SDS011;11828;51.508;18.118;2022-11-15T09:55:58;318.27;;;105.78;;
23310;SDS011;11828;51.508;18.118;2022-11-15T09:58:30;320.92;;;107.18;;
23310;SDS011;11828;51.508;18.118;2022-11-15T10:01:07;305.85;;;101.82;;
23310;SDS011;11828;51.508;18.118;2022-11-15T10:04:02;409.73;;;138.80;;
23310;SDS011;11828;51.508;18.118;2022-11-15T10:06:28;354.00;;;116.32;;
23310;SDS011;11828;51.508;18.118;2022-11-15T10:11:39;303.90;;;98.80;;
23310;SDS011;11828;51.508;18.118;2022-11-15T10:14:17;293.98;;;98.28;;
23310;SDS011;11828;51.508;18.118;2022-11-15T10:22:35;296.20;;;99.00;;
23310;SDS011;11828;51.508;18.118;2022-11-15T10:25:28;301.27;;;98.38;;
23310;SDS011;11828;51.508;18.118;2022-11-15T10:30:47;317.63;;;109.50;;
23310;SDS011;11828;51.508;18.118;2022-11-15T10:33:19;308.48;;;104.57;;
23310;SDS011;11828;51.508;18.118;2022-11-15T10:49:22;263.40;;;99.65;;
23310;SDS011;11828;51.508;18.118;2022-11-15T10:52:04;270.63;;;100.35;;
23310;SDS011;11828;51.508;18.118;2022-11-15T10:54:45;273.33;;;109.13;;
23310;SDS011;11828;51.508;18.118;2022-11-15T10:57:19;332.17;;;150.77;;
23310;SDS011;11828;51.508;18.118;2022-11-15T10:59:48;279.67;;;106.47;;
23310;SDS011;11828;51.508;18.118;2022-11-15T11:02:45;345.83;;;184.88;;
23310;SDS011;11828;51.508;18.118;2022-11-15T11:05:31;338.90;;;173.80;;
23310;SDS011;11828;51.508;18.118;2022-11-15T11:08:02;308.23;;;109.80;;
23310;SDS011;11828;51.508;18.118;2022-11-15T11:10:57;310.05;;;108.97;;
23310;SDS011;11828;51.508;18.118;2022-11-15T11:13:26;248.00;;;108.55;;
23310;SDS011;11828;51.508;18.118;2022-11-15T11:21:42;206.55;;;104.25;;
23310;SDS011;11828;51.508;18.118;2022-11-15T11:27:43;167.52;;;95.28;;
23310;SDS011;11828;51.508;18.118;2022-11-15T11:33:30;132.40;;;85.88;;
23310;SDS011;11828;51.508;18.118;2022-11-15T11:38:57;136.85;;;84.35;;
23310;SDS011;11828;51.508;18.118;2022-11-15T11:41:57;232.80;;;99.75;;
23310;SDS011;11828;51.508;18.118;2022-11-15T11:45:15;309.02;;;109.38;;
23310;SDS011;11828;51.508;18.118;2022-11-15T11:48:11;297.80;;;111.25;;
23310;SDS011;11828;51.508;18.118;2022-11-15T11:51:31;302.58;;;108.72;;
23310;SDS011;11828;51.508;18.118;2022-11-15T11:54:14;295.98;;;108.32;;
23310;SDS011;11828;51.508;18.118;2022-11-15T11:57:59;311.88;;;110.07;;
23310;SDS011;11828;51.508;18.118;2022-11-15T12:00:49;303.30;;;110.10;;
23310;SDS011;11828;51.508;18.118;2022-11-15T12:03:56;307.25;;;111.50;;
23310;SDS011;11828;51.508;18.118;2022-11-15T12:09:29;344.58;;;112.30;;
23310;SDS011;11828;51.508;18.118;2022-11-15T12:14:46;287.40;;;106.50;;
23310;SDS011;11828;51.508;18.118;2022-11-15T12:17:19;309.48;;;109.47;;
23310;SDS011;11828;51.508;18.118;2022-11-15T12:19:51;302.45;;;113.18;;
23310;SDS011;11828;51.508;18.118;2022-11-15T12:22:42;298.20;;;112.22;;
23310;SDS011;11828;51.508;18.118;2022-11-15T12:25:21;302.80;;;114.20;;
23310;SDS011;11828;51.508;18.118;2022-11-15T12:31:24;304.65;;;106.78;;
23310;SDS011;11828;51.508;18.118;2022-11-15T12:34:48;285.23;;;109.03;;
23310;SDS011;11828;51.508;18.118;2022-11-15T12:36:52;199.27;;;99.78;;
23310;SDS011;11828;51.508;18.118;2022-11-15T12:39:18;155.13;;;89.15;;
23310;SDS011;11828;51.508;18.118;2022-11-15T12:47:21;158.98;;;90.55;;
23310;SDS011;11828;51.508;18.118;2022-11-15T12:49:50;166.20;;;92.07;;
23310;SDS011;11828;51.508;18.118;2022-11-15T12:52:17;214.18;;;103.63;;
23310;SDS011;11828;51.508;18.118;2022-11-15T12:54:50;211.52;;;98.72;;
23310;SDS011;11828;51.508;18.118;2022-11-15T12:57:27;237.50;;;104.18;;
23310;SDS011;11828;51.508;18.118;2022-11-15T12:59:57;267.42;;;103.95;;
23310;SDS011;11828;51.508;18.118;2022-11-15T13:03:12;299.20;;;114.65;;
23310;SDS011;11828;51.508;18.118;2022-11-15T13:08:10;63.13;;;42.30;;
23310;SDS011;11828;51.508;18.118;2022-11-15T13:19:46;278.17;;;101.85;;
23310;SDS011;11828;51.508;18.118;2022-11-15T13:22:18;140.88;;;77.35;;
23310;SDS011;11828;51.508;18.118;2022-11-15T13:25:04;111.78;;;65.68;;
23310;SDS011;11828;51.508;18.118;2022-11-15T13:27:49;55.90;;;33.45;;
23310;SDS011;11828;51.508;18.118;2022-11-15T13:30:21;180.68;;;98.25;;
23310;SDS011;11828;51.508;18.118;2022-11-15T13:32:50;120.32;;;67.20;;
23310;SDS011;11828;51.508;18.118;2022-11-15T13:35:25;98.20;;;48.58;;
23310;SDS011;11828;51.508;18.118;2022-11-15T13:37:55;56.38;;;29.65;;
23310;SDS011;11828;51.508;18.118;2022-11-15T13:40:29;51.63;;;26.95;;
23310;SDS011;11828;51.508;18.118;2022-11-15T13:43:15;102.80;;;53.85;;
23310;SDS011;11828;51.508;18.118;2022-11-15T13:48:45;308.38;;;117.47;;
23310;SDS011;11828;51.508;18.118;2022-11-15T13:51:16;161.85;;;93.75;;
23310;SDS011;11828;51.508;18.118;2022-11-15T13:53:48;89.85;;;47.97;;
23310;SDS011;11828;51.508;18.118;2022-11-15T13:56:20;79.78;;;38.97;;
23310;SDS011;11828;51.508;18.118;2022-11-15T13:58:47;66.20;;;34.25;;
23310;SDS011;11828;51.508;18.118;2022-11-15T14:01:14;56.42;;;28.58;;
23310;SDS011;11828;51.508;18.118;2022-11-15T14:03:49;132.27;;;44.70;;
23310;SDS011;11828;51.508;18.118;2022-11-15T14:06:27;105.63;;;66.35;;
23310;SDS011;11828;51.508;18.118;2022-11-15T14:08:59;105.45;;;51.53;;
23310;SDS011;11828;51.508;18.118;2022-11-15T14:11:51;83.28;;;54.20;;
23310;SDS011;11828;51.508;18.118;2022-11-15T14:14:23;108.80;;;72.78;;
23310;SDS011;11828;51.508;18.118;2022-11-15T14:16:52;242.23;;;110.05;;
23310;SDS011;11828;51.508;18.118;2022-11-15T14:24:47;281.05;;;131.32;;
23310;SDS011;11828;51.508;18.118;2022-11-15T14:30:56;292.35;;;124.45;;
23310;SDS011;11828;51.508;18.118;2022-11-15T14:33:34;293.65;;;123.38;;
23310;SDS011;11828;51.508;18.118;2022-11-15T14:36:05;279.77;;;130.27;;
23310;SDS011;11828;51.508;18.118;2022-11-15T14:38:40;311.42;;;130.23;;
23310;SDS011;11828;51.508;18.118;2022-11-15T14:41:17;198.38;;;117.10;;
23310;SDS011;11828;51.508;18.118;2022-11-15T14:43:48;177.55;;;113.50;;
23310;SDS011;11828;51.508;18.118;2022-11-15T14:46:15;177.57;;;109.40;;
23310;SDS011;11828;51.508;18.118;2022-11-15T14:48:42;240.25;;;120.07;;
23310;SDS011;11828;51.508;18.118;2022-11-15T14:51:11;233.25;;;102.80;;
23310;SDS011;11828;51.508;18.118;2022-11-15T14:53:40;250.10;;;103.55;;
23310;SDS011;11828;51.508;18.118;2022-11-15T14:56:07;266.95;;;102.32;;
23310;SDS011;11828;51.508;18.118;2022-11-15T14:58:34;253.82;;;101.60;;
23310;SDS011;11828;51.508;18.118;2022-11-15T15:01:01;278.75;;;101.15;;
23310;SDS011;11828;51.508;18.118;2022-11-15T15:03:37;329.25;;;104.70;;
23310;SDS011;11828;51.508;18.118;2022-11-15T15:06:03;304.67;;;142.45;;
23310;SDS011;11828;51.508;18.118;2022-11-15T15:08:30;305.90;;;102.20;;
23310;SDS011;11828;51.508;18.118;2022-11-15T15:10:56;314.70;;;103.40;;
23310;SDS011;11828;51.508;18.118;2022-11-15T15:13:23;308.83;;;108.40;;
23310;SDS011;11828;51.508;18.118;2022-11-15T15:15:50;313.40;;;108.82;;
23310;SDS011;11828;51.508;18.118;2022-11-15T15:18:18;297.35;;;104.45;;
23310;SDS011;11828;51.508;18.118;2022-11-15T15:20:44;306.85;;;102.88;;
23310;SDS011;11828;51.508;18.118;2022-11-15T15:23:15;298.75;;;100.75;;
23310;SDS011;11828;51.508;18.118;2022-11-15T15:25:45;296.23;;;100.47;;
23310;SDS011;11828;51.508;18.118;2022-11-15T15:28:14;309.17;;;102.10;;
23310;SDS011;11828;51.508;18.118;2022-11-15T15:30:40;301.45;;;101.45;;
23310;SDS011;11828;51.508;18.118;2022-11-15T15:33:07;300.45;;;100.53;;
23310;SDS011;11828;51.508;18.118;2022-11-15T15:35:33;330.23;;;105.13;;
23310;SDS011;11828;51.508;18.118;2022-11-15T15:38:00;299.13;;;101.07;;
23310;SDS011;11828;51.508;18.118;2022-11-15T15:40:29;302.20;;;102.15;;
23310;SDS011;11828;51.508;18.118;2022-11-15T15:42:58;296.30;;;118.35;;
23310;SDS011;11828;51.508;18.118;2022-11-15T15:45:24;274.77;;;96.03;;
23310;SDS011;11828;51.508;18.118;2022-11-15T15:47:52;278.08;;;94.07;;
23310;SDS011;11828;51.508;18.118;2022-11-15T15:50:25;278.75;;;99.75;;
23310;SDS011;11828;51.508;18.118;2022-11-15T15:52:59;289.63;;;97.32;;
23310;SDS011;11828;51.508;18.118;2022-11-15T15:55:28;302.73;;;107.25;;
23310;SDS011;11828;51.508;18.118;2022-11-15T15:57:54;306.52;;;109.35;;
23310;SDS011;11828;51.508;18.118;2022-11-15T16:00:21;299.77;;;105.82;;
23310;SDS011;11828;51.508;18.118;2022-11-15T16:02:50;309.88;;;104.70;;
23310;SDS011;11828;51.508;18.118;2022-11-15T16:05:17;302.48;;;105.30;;
23310;SDS011;11828;51.508;18.118;2022-11-15T16:07:44;307.85;;;101.75;;
23310;SDS011;11828;51.508;18.118;2022-11-15T16:13:10;314.40;;;102.97;;
23310;SDS011;11828;51.508;18.118;2022-11-15T16:15:35;293.20;;;102.65;;